sensor_id;sensor_type;location;lat;lon;timestamp;P1;durP1;ratioP1;P2;durP2;ratioP2
52106;SDS011;38105;52.968;5.974;2022-12-07T00:00:52;7.03;;;1.52;;
52106;SDS011;38105;52.968;5.974;2022-12-07T00:03:18;13.02;;;2.00;;
52106;SDS011;38105;52.968;5.974;2022-12-07T00:05:44;9.02;;;1.17;;
52106;SDS011;38105;52.968;5.974;2022-12-07T00:08:09;10.15;;;1.75;;
52106;SDS011;38105;52.968;5.974;2022-12-07T00:10:35;9.98;;;1.23;;
52106;SDS011;38105;52.968;5.974;2022-12-07T00:13:01;10.93;;;1.42;;
52106;SDS011;38105;52.968;5.974;2022-12-07T00:15:26;7.68;;;1.20;;
52106;SDS011;38105;52.968;5.974;2022-12-07T00:17:52;11.43;;;2.15;;
52106;SDS011;38105;52.968;5.974;2022-12-07T00:20:17;12.63;;;1.27;;
52106;SDS011;38105;52.968;5.974;2022-12-07T00:22:43;8.02;;;1.17;;
52106;SDS011;38105;52.968;5.974;2022-12-07T00:25:08;12.73;;;1.35;;
52106;SDS011;38105;52.968;5.974;2022-12-07T00:27:34;13.48;;;1.58;;
52106;SDS011;38105;52.968;5.974;2022-12-07T00:30:00;11.98;;;1.50;;
52106;SDS011;38105;52.968;5.974;2022-12-07T00:32:26;9.45;;;1.20;;
52106;SDS011;38105;52.968;5.974;2022-12-07T00:34:51;9.60;;;1.08;;
52106;SDS011;38105;52.968;5.974;2022-12-07T00:37:17;10.68;;;1.38;;
52106;SDS011;38105;52.968;5.974;2022-12-07T00:39:42;12.32;;;1.83;;
52106;SDS011;38105;52.968;5.974;2022-12-07T00:42:08;12.60;;;1.40;;
52106;SDS011;38105;52.968;5.974;2022-12-07T00:44:34;15.38;;;1.50;;
52106;SDS011;38105;52.968;5.974;2022-12-07T00:46:59;8.50;;;1.02;;
52106;SDS011;38105;52.968;5.974;2022-12-07T00:49:25;9.48;;;1.10;;
52106;SDS011;38105;52.968;5.974;2022-12-07T00:51:50;11.57;;;1.35;;
52106;SDS011;38105;52.968;5.974;2022-12-07T00:54:16;10.52;;;1.33;;
52106;SDS011;38105;52.968;5.974;2022-12-07T00:56:42;6.68;;;1.48;;
52106;SDS011;38105;52.968;5.974;2022-12-07T00:59:10;8.48;;;1.10;;
52106;SDS011;38105;52.968;5.974;2022-12-07T01:01:39;10.02;;;1.27;;
52106;SDS011;38105;52.968;5.974;2022-12-07T01:04:04;8.45;;;0.90;;
52106;SDS011;38105;52.968;5.974;2022-12-07T01:06:30;7.47;;;1.05;;
52106;SDS011;38105;52.968;5.974;2022-12-07T01:08:56;14.65;;;0.95;;
52106;SDS011;38105;52.968;5.974;2022-12-07T01:11:23;9.13;;;1.02;;
52106;SDS011;38105;52.968;5.974;2022-12-07T01:13:51;7.57;;;0.98;;
52106;SDS011;38105;52.968;5.974;2022-12-07T01:16:18;10.15;;;1.52;;
52106;SDS011;38105;52.968;5.974;2022-12-07T01:18:46;8.38;;;0.93;;
52106;SDS011;38105;52.968;5.974;2022-12-07T01:21:14;7.00;;;1.02;;
52106;SDS011;38105;52.968;5.974;2022-12-07T01:23:42;11.40;;;1.30;;
52106;SDS011;38105;52.968;5.974;2022-12-07T01:26:10;11.30;;;1.48;;
52106;SDS011;38105;52.968;5.974;2022-12-07T01:28:37;10.65;;;1.00;;
52106;SDS011;38105;52.968;5.974;2022-12-07T01:33:33;14.23;;;1.60;;
52106;SDS011;38105;52.968;5.974;2022-12-07T01:36:46;14.57;;;1.83;;
52106;SDS011;38105;52.968;5.974;2022-12-07T01:39:05;12.45;;;1.58;;
52106;SDS011;38105;52.968;5.974;2022-12-07T01:41:33;10.60;;;1.05;;
52106;SDS011;38105;52.968;5.974;2022-12-07T01:46:41;7.47;;;0.98;;
52106;SDS011;38105;52.968;5.974;2022-12-07T01:49:31;8.07;;;0.90;;
52106;SDS011;38105;52.968;5.974;2022-12-07T01:52:08;7.13;;;1.08;;
52106;SDS011;38105;52.968;5.974;2022-12-07T01:54:41;10.00;;;1.17;;
52106;SDS011;38105;52.968;5.974;2022-12-07T01:57:09;14.43;;;1.42;;
52106;SDS011;38105;52.968;5.974;2022-12-07T01:59:36;5.28;;;0.73;;
52106;SDS011;38105;52.968;5.974;2022-12-07T02:02:03;16.67;;;1.20;;
52106;SDS011;38105;52.968;5.974;2022-12-07T02:04:33;8.85;;;1.20;;
52106;SDS011;38105;52.968;5.974;2022-12-07T02:07:00;9.45;;;1.30;;
52106;SDS011;38105;52.968;5.974;2022-12-07T02:09:28;10.23;;;1.30;;
52106;SDS011;38105;52.968;5.974;2022-12-07T02:11:53;11.27;;;1.42;;
52106;SDS011;38105;52.968;5.974;2022-12-07T02:14:20;9.10;;;1.50;;
52106;SDS011;38105;52.968;5.974;2022-12-07T02:16:47;13.23;;;1.38;;
52106;SDS011;38105;52.968;5.974;2022-12-07T02:22:36;10.43;;;1.08;;
52106;SDS011;38105;52.968;5.974;2022-12-07T02:25:42;8.18;;;0.90;;
52106;SDS011;38105;52.968;5.974;2022-12-07T02:28:33;15.00;;;1.95;;
52106;SDS011;38105;52.968;5.974;2022-12-07T02:31:03;9.00;;;1.05;;
52106;SDS011;38105;52.968;5.974;2022-12-07T02:33:40;9.52;;;1.27;;
52106;SDS011;38105;52.968;5.974;2022-12-07T02:36:18;11.57;;;1.00;;
52106;SDS011;38105;52.968;5.974;2022-12-07T02:41:21;7.00;;;1.75;;
52106;SDS011;38105;52.968;5.974;2022-12-07T02:43:52;9.30;;;0.88;;
52106;SDS011;38105;52.968;5.974;2022-12-07T02:46:28;12.52;;;1.20;;
52106;SDS011;38105;52.968;5.974;2022-12-07T02:48:57;11.02;;;1.15;;
52106;SDS011;38105;52.968;5.974;2022-12-07T02:51:25;11.15;;;1.55;;
52106;SDS011;38105;52.968;5.974;2022-12-07T02:53:51;9.35;;;1.17;;
52106;SDS011;38105;52.968;5.974;2022-12-07T02:56:20;7.97;;;0.77;;
52106;SDS011;38105;52.968;5.974;2022-12-07T03:04:08;10.57;;;1.45;;
52106;SDS011;38105;52.968;5.974;2022-12-07T03:06:53;13.80;;;1.60;;
52106;SDS011;38105;52.968;5.974;2022-12-07T03:12:17;8.80;;;1.05;;
52106;SDS011;38105;52.968;5.974;2022-12-07T03:14:47;11.77;;;1.00;;
52106;SDS011;38105;52.968;5.974;2022-12-07T03:17:24;11.43;;;1.52;;
52106;SDS011;38105;52.968;5.974;2022-12-07T03:19:55;10.73;;;1.30;;
52106;SDS011;38105;52.968;5.974;2022-12-07T03:22:23;12.40;;;1.30;;
52106;SDS011;38105;52.968;5.974;2022-12-07T03:24:57;12.40;;;1.27;;
52106;SDS011;38105;52.968;5.974;2022-12-07T03:27:26;21.13;;;1.63;;
52106;SDS011;38105;52.968;5.974;2022-12-07T03:40:22;10.60;;;1.35;;
52106;SDS011;38105;52.968;5.974;2022-12-07T03:43:02;12.52;;;1.42;;
52106;SDS011;38105;52.968;5.974;2022-12-07T03:45:38;12.05;;;0.82;;
52106;SDS011;38105;52.968;5.974;2022-12-07T03:51:20;10.02;;;1.17;;
52106;SDS011;38105;52.968;5.974;2022-12-07T03:56:26;8.50;;;1.15;;
52106;SDS011;38105;52.968;5.974;2022-12-07T03:58:53;10.38;;;0.80;;
52106;SDS011;38105;52.968;5.974;2022-12-07T04:01:19;10.10;;;1.02;;
52106;SDS011;38105;52.968;5.974;2022-12-07T04:03:45;7.35;;;0.82;;
52106;SDS011;38105;52.968;5.974;2022-12-07T04:06:11;11.10;;;0.90;;
52106;SDS011;38105;52.968;5.974;2022-12-07T04:08:36;6.70;;;1.10;;
52106;SDS011;38105;52.968;5.974;2022-12-07T04:11:02;11.85;;;1.20;;
52106;SDS011;38105;52.968;5.974;2022-12-07T04:13:28;11.27;;;1.30;;
52106;SDS011;38105;52.968;5.974;2022-12-07T04:15:53;10.10;;;1.15;;
52106;SDS011;38105;52.968;5.974;2022-12-07T04:18:19;15.18;;;1.40;;
52106;SDS011;38105;52.968;5.974;2022-12-07T04:20:45;7.85;;;1.33;;
52106;SDS011;38105;52.968;5.974;2022-12-07T04:23:11;8.82;;;0.80;;
52106;SDS011;38105;52.968;5.974;2022-12-07T04:25:37;10.40;;;0.95;;
52106;SDS011;38105;52.968;5.974;2022-12-07T04:28:02;9.55;;;1.10;;
52106;SDS011;38105;52.968;5.974;2022-12-07T04:30:28;7.97;;;0.98;;
52106;SDS011;38105;52.968;5.974;2022-12-07T04:32:54;10.73;;;0.90;;
52106;SDS011;38105;52.968;5.974;2022-12-07T04:35:19;9.80;;;0.93;;
52106;SDS011;38105;52.968;5.974;2022-12-07T04:37:45;7.68;;;0.68;;
52106;SDS011;38105;52.968;5.974;2022-12-07T04:40:11;11.27;;;1.50;;
52106;SDS011;38105;52.968;5.974;2022-12-07T04:42:39;10.30;;;1.25;;
52106;SDS011;38105;52.968;5.974;2022-12-07T04:45:05;6.20;;;0.88;;
52106;SDS011;38105;52.968;5.974;2022-12-07T04:47:31;10.10;;;1.15;;
52106;SDS011;38105;52.968;5.974;2022-12-07T04:49:56;7.68;;;1.30;;
52106;SDS011;38105;52.968;5.974;2022-12-07T04:52:22;9.55;;;0.90;;
52106;SDS011;38105;52.968;5.974;2022-12-07T04:54:48;8.05;;;0.80;;
52106;SDS011;38105;52.968;5.974;2022-12-07T04:57:13;11.20;;;1.00;;
52106;SDS011;38105;52.968;5.974;2022-12-07T04:59:39;12.82;;;1.08;;
52106;SDS011;38105;52.968;5.974;2022-12-07T05:02:04;9.40;;;0.98;;
52106;SDS011;38105;52.968;5.974;2022-12-07T05:04:30;8.90;;;0.77;;
52106;SDS011;38105;52.968;5.974;2022-12-07T05:06:56;10.75;;;0.95;;
52106;SDS011;38105;52.968;5.974;2022-12-07T05:09:21;9.60;;;0.95;;
52106;SDS011;38105;52.968;5.974;2022-12-07T05:11:47;8.75;;;0.88;;
52106;SDS011;38105;52.968;5.974;2022-12-07T05:14:14;9.68;;;0.68;;
52106;SDS011;38105;52.968;5.974;2022-12-07T05:16:42;6.95;;;0.95;;
52106;SDS011;38105;52.968;5.974;2022-12-07T05:19:10;8.05;;;0.80;;
52106;SDS011;38105;52.968;5.974;2022-12-07T05:21:36;8.65;;;1.27;;
52106;SDS011;38105;52.968;5.974;2022-12-07T05:24:02;8.20;;;1.50;;
52106;SDS011;38105;52.968;5.974;2022-12-07T05:26:28;11.75;;;1.02;;
52106;SDS011;38105;52.968;5.974;2022-12-07T05:28:54;6.60;;;0.88;;
52106;SDS011;38105;52.968;5.974;2022-12-07T05:31:21;9.60;;;0.98;;
52106;SDS011;38105;52.968;5.974;2022-12-07T05:33:48;11.50;;;1.27;;
52106;SDS011;38105;52.968;5.974;2022-12-07T05:36:13;11.35;;;1.40;;
52106;SDS011;38105;52.968;5.974;2022-12-07T05:38:39;9.00;;;0.88;;
52106;SDS011;38105;52.968;5.974;2022-12-07T05:41:06;12.25;;;2.33;;
52106;SDS011;38105;52.968;5.974;2022-12-07T05:43:53;10.77;;;1.30;;
52106;SDS011;38105;52.968;5.974;2022-12-07T05:46:18;11.25;;;1.35;;
52106;SDS011;38105;52.968;5.974;2022-12-07T05:48:44;9.75;;;1.20;;
52106;SDS011;38105;52.968;5.974;2022-12-07T05:51:09;6.30;;;0.80;;
52106;SDS011;38105;52.968;5.974;2022-12-07T05:53:35;10.80;;;1.25;;
52106;SDS011;38105;52.968;5.974;2022-12-07T05:56:01;9.93;;;1.00;;
52106;SDS011;38105;52.968;5.974;2022-12-07T05:58:26;6.47;;;0.47;;
52106;SDS011;38105;52.968;5.974;2022-12-07T06:01:10;6.45;;;0.80;;
52106;SDS011;38105;52.968;5.974;2022-12-07T06:03:36;5.78;;;0.70;;
52106;SDS011;38105;52.968;5.974;2022-12-07T06:06:02;7.20;;;1.00;;
52106;SDS011;38105;52.968;5.974;2022-12-07T06:08:27;8.98;;;1.00;;
52106;SDS011;38105;52.968;5.974;2022-12-07T06:10:53;9.52;;;0.90;;
52106;SDS011;38105;52.968;5.974;2022-12-07T06:13:38;3.22;;;0.80;;
52106;SDS011;38105;52.968;5.974;2022-12-07T06:16:04;5.90;;;0.73;;
52106;SDS011;38105;52.968;5.974;2022-12-07T06:18:30;7.78;;;0.90;;
52106;SDS011;38105;52.968;5.974;2022-12-07T06:20:56;9.38;;;0.95;;
52106;SDS011;38105;52.968;5.974;2022-12-07T06:23:21;8.77;;;1.20;;
52106;SDS011;38105;52.968;5.974;2022-12-07T06:25:47;9.73;;;0.95;;
52106;SDS011;38105;52.968;5.974;2022-12-07T06:28:12;11.85;;;2.05;;
52106;SDS011;38105;52.968;5.974;2022-12-07T06:30:38;7.10;;;0.70;;
52106;SDS011;38105;52.968;5.974;2022-12-07T06:33:04;11.18;;;0.88;;
52106;SDS011;38105;52.968;5.974;2022-12-07T06:35:29;7.60;;;1.00;;
52106;SDS011;38105;52.968;5.974;2022-12-07T06:37:57;9.60;;;1.13;;
52106;SDS011;38105;52.968;5.974;2022-12-07T06:40:23;7.30;;;0.88;;
52106;SDS011;38105;52.968;5.974;2022-12-07T06:42:49;7.55;;;0.82;;
52106;SDS011;38105;52.968;5.974;2022-12-07T06:45:14;7.07;;;0.85;;
52106;SDS011;38105;52.968;5.974;2022-12-07T06:47:40;8.00;;;1.58;;
52106;SDS011;38105;52.968;5.974;2022-12-07T06:50:06;10.68;;;1.90;;
52106;SDS011;38105;52.968;5.974;2022-12-07T06:52:32;15.32;;;2.05;;
52106;SDS011;38105;52.968;5.974;2022-12-07T06:54:59;9.18;;;1.90;;
52106;SDS011;38105;52.968;5.974;2022-12-07T06:57:24;10.38;;;1.70;;
52106;SDS011;38105;52.968;5.974;2022-12-07T06:59:51;5.25;;;1.80;;
52106;SDS011;38105;52.968;5.974;2022-12-07T07:02:16;15.18;;;1.88;;
52106;SDS011;38105;52.968;5.974;2022-12-07T07:04:43;11.43;;;2.97;;
52106;SDS011;38105;52.968;5.974;2022-12-07T07:07:08;12.38;;;3.58;;
52106;SDS011;38105;52.968;5.974;2022-12-07T07:09:34;8.48;;;2.92;;
52106;SDS011;38105;52.968;5.974;2022-12-07T07:12:00;8.02;;;2.78;;
52106;SDS011;38105;52.968;5.974;2022-12-07T07:14:25;9.57;;;2.70;;
52106;SDS011;38105;52.968;5.974;2022-12-07T07:16:51;10.63;;;2.72;;
52106;SDS011;38105;52.968;5.974;2022-12-07T07:19:17;12.30;;;2.88;;
52106;SDS011;38105;52.968;5.974;2022-12-07T07:21:42;14.02;;;1.75;;
52106;SDS011;38105;52.968;5.974;2022-12-07T07:24:08;14.23;;;1.83;;
52106;SDS011;38105;52.968;5.974;2022-12-07T07:26:33;12.65;;;1.52;;
52106;SDS011;38105;52.968;5.974;2022-12-07T07:28:59;15.88;;;1.58;;
52106;SDS011;38105;52.968;5.974;2022-12-07T07:31:25;11.65;;;1.40;;
52106;SDS011;38105;52.968;5.974;2022-12-07T07:33:50;9.82;;;1.75;;
52106;SDS011;38105;52.968;5.974;2022-12-07T07:36:16;12.13;;;1.67;;
52106;SDS011;38105;52.968;5.974;2022-12-07T07:38:42;10.68;;;1.50;;
52106;SDS011;38105;52.968;5.974;2022-12-07T07:41:07;15.10;;;1.38;;
52106;SDS011;38105;52.968;5.974;2022-12-07T07:43:33;10.32;;;1.50;;
52106;SDS011;38105;52.968;5.974;2022-12-07T07:45:58;10.43;;;1.70;;
52106;SDS011;38105;52.968;5.974;2022-12-07T07:48:24;15.15;;;1.90;;
52106;SDS011;38105;52.968;5.974;2022-12-07T07:50:50;8.75;;;1.70;;
52106;SDS011;38105;52.968;5.974;2022-12-07T07:53:16;13.50;;;1.98;;
52106;SDS011;38105;52.968;5.974;2022-12-07T07:55:49;11.38;;;1.80;;
52106;SDS011;38105;52.968;5.974;2022-12-07T07:58:16;6.82;;;1.55;;
52106;SDS011;38105;52.968;5.974;2022-12-07T08:00:42;7.47;;;1.58;;
52106;SDS011;38105;52.968;5.974;2022-12-07T08:03:07;9.63;;;1.15;;
52106;SDS011;38105;52.968;5.974;2022-12-07T08:05:33;12.38;;;1.75;;
52106;SDS011;38105;52.968;5.974;2022-12-07T08:07:59;14.75;;;1.80;;
52106;SDS011;38105;52.968;5.974;2022-12-07T08:10:24;6.82;;;1.58;;
52106;SDS011;38105;52.968;5.974;2022-12-07T08:12:50;10.77;;;1.88;;
52106;SDS011;38105;52.968;5.974;2022-12-07T08:15:35;14.20;;;2.50;;
52106;SDS011;38105;52.968;5.974;2022-12-07T08:18:03;13.23;;;2.95;;
52106;SDS011;38105;52.968;5.974;2022-12-07T08:20:32;12.05;;;2.83;;
52106;SDS011;38105;52.968;5.974;2022-12-07T08:22:59;11.77;;;2.22;;
52106;SDS011;38105;52.968;5.974;2022-12-07T08:25:25;9.32;;;1.80;;
52106;SDS011;38105;52.968;5.974;2022-12-07T08:27:52;13.00;;;2.40;;
52106;SDS011;38105;52.968;5.974;2022-12-07T08:30:18;8.70;;;1.55;;
52106;SDS011;38105;52.968;5.974;2022-12-07T08:32:44;12.60;;;2.20;;
52106;SDS011;38105;52.968;5.974;2022-12-07T08:35:10;10.95;;;1.50;;
52106;SDS011;38105;52.968;5.974;2022-12-07T08:37:36;10.10;;;1.67;;
52106;SDS011;38105;52.968;5.974;2022-12-07T08:40:03;9.90;;;1.98;;
52106;SDS011;38105;52.968;5.974;2022-12-07T08:42:29;9.13;;;2.13;;
52106;SDS011;38105;52.968;5.974;2022-12-07T08:45:03;9.90;;;2.60;;
52106;SDS011;38105;52.968;5.974;2022-12-07T08:47:30;12.30;;;1.92;;
52106;SDS011;38105;52.968;5.974;2022-12-07T08:49:56;12.23;;;2.63;;
52106;SDS011;38105;52.968;5.974;2022-12-07T08:52:22;12.52;;;1.70;;
52106;SDS011;38105;52.968;5.974;2022-12-07T08:54:48;9.82;;;1.25;;
52106;SDS011;38105;52.968;5.974;2022-12-07T08:57:14;10.63;;;1.42;;
52106;SDS011;38105;52.968;5.974;2022-12-07T08:59:39;12.57;;;1.77;;
52106;SDS011;38105;52.968;5.974;2022-12-07T09:02:05;11.48;;;1.50;;
52106;SDS011;38105;52.968;5.974;2022-12-07T09:04:31;9.98;;;1.70;;
52106;SDS011;38105;52.968;5.974;2022-12-07T09:06:57;9.98;;;1.73;;
52106;SDS011;38105;52.968;5.974;2022-12-07T09:09:23;6.03;;;1.30;;
52106;SDS011;38105;52.968;5.974;2022-12-07T09:11:49;11.18;;;1.27;;
52106;SDS011;38105;52.968;5.974;2022-12-07T09:14:15;6.65;;;1.45;;
52106;SDS011;38105;52.968;5.974;2022-12-07T09:16:40;10.55;;;2.05;;
52106;SDS011;38105;52.968;5.974;2022-12-07T09:19:07;8.52;;;1.10;;
52106;SDS011;38105;52.968;5.974;2022-12-07T09:21:33;4.13;;;1.10;;
52106;SDS011;38105;52.968;5.974;2022-12-07T09:23:59;8.60;;;1.38;;
52106;SDS011;38105;52.968;5.974;2022-12-07T09:26:24;6.18;;;1.20;;
52106;SDS011;38105;52.968;5.974;2022-12-07T09:28:50;8.95;;;1.67;;
52106;SDS011;38105;52.968;5.974;2022-12-07T09:31:16;7.15;;;1.38;;
52106;SDS011;38105;52.968;5.974;2022-12-07T09:33:42;6.70;;;1.10;;
52106;SDS011;38105;52.968;5.974;2022-12-07T09:36:07;8.65;;;1.42;;
52106;SDS011;38105;52.968;5.974;2022-12-07T09:38:34;8.25;;;2.35;;
52106;SDS011;38105;52.968;5.974;2022-12-07T09:41:04;8.60;;;1.73;;
52106;SDS011;38105;52.968;5.974;2022-12-07T09:43:33;6.22;;;1.05;;
52106;SDS011;38105;52.968;5.974;2022-12-07T09:46:01;6.45;;;1.30;;
52106;SDS011;38105;52.968;5.974;2022-12-07T09:48:35;5.53;;;1.45;;
52106;SDS011;38105;52.968;5.974;2022-12-07T09:51:02;4.15;;;1.38;;
52106;SDS011;38105;52.968;5.974;2022-12-07T09:53:55;8.38;;;1.85;;
52106;SDS011;38105;52.968;5.974;2022-12-07T09:56:23;6.78;;;1.75;;
52106;SDS011;38105;52.968;5.974;2022-12-07T09:58:50;6.28;;;2.08;;
52106;SDS011;38105;52.968;5.974;2022-12-07T10:01:23;6.80;;;2.30;;
52106;SDS011;38105;52.968;5.974;2022-12-07T10:03:49;8.50;;;1.48;;
52106;SDS011;38105;52.968;5.974;2022-12-07T10:06:15;11.18;;;1.25;;
52106;SDS011;38105;52.968;5.974;2022-12-07T10:08:41;10.45;;;2.45;;
52106;SDS011;38105;52.968;5.974;2022-12-07T10:11:08;8.27;;;1.20;;
52106;SDS011;38105;52.968;5.974;2022-12-07T10:13:39;13.80;;;1.95;;
52106;SDS011;38105;52.968;5.974;2022-12-07T10:18:48;9.35;;;1.25;;
52106;SDS011;38105;52.968;5.974;2022-12-07T10:21:15;8.73;;;1.50;;
52106;SDS011;38105;52.968;5.974;2022-12-07T10:24:32;11.57;;;1.52;;
52106;SDS011;38105;52.968;5.974;2022-12-07T10:31:51;6.25;;;1.77;;
52106;SDS011;38105;52.968;5.974;2022-12-07T10:42:22;16.70;;;2.45;;
52106;SDS011;38105;52.968;5.974;2022-12-07T10:44:48;10.52;;;1.50;;
52106;SDS011;38105;52.968;5.974;2022-12-07T10:47:33;14.00;;;1.58;;
52106;SDS011;38105;52.968;5.974;2022-12-07T10:50:10;9.85;;;1.80;;
52106;SDS011;38105;52.968;5.974;2022-12-07T11:01:17;8.88;;;1.98;;
52106;SDS011;38105;52.968;5.974;2022-12-07T11:06:47;14.52;;;3.35;;
52106;SDS011;38105;52.968;5.974;2022-12-07T11:12:10;9.98;;;1.58;;
52106;SDS011;38105;52.968;5.974;2022-12-07T11:17:26;9.80;;;1.60;;
52106;SDS011;38105;52.968;5.974;2022-12-07T11:20:33;12.20;;;1.90;;
52106;SDS011;38105;52.968;5.974;2022-12-07T11:36:58;13.60;;;1.73;;
52106;SDS011;38105;52.968;5.974;2022-12-07T11:39:33;9.85;;;1.88;;
52106;SDS011;38105;52.968;5.974;2022-12-07T11:42:05;12.07;;;1.98;;
52106;SDS011;38105;52.968;5.974;2022-12-07T11:47:36;12.40;;;2.20;;
52106;SDS011;38105;52.968;5.974;2022-12-07T11:53:03;15.48;;;1.75;;
52106;SDS011;38105;52.968;5.974;2022-12-07T12:06:34;15.05;;;2.03;;
52106;SDS011;38105;52.968;5.974;2022-12-07T12:14:33;9.00;;;1.67;;
52106;SDS011;38105;52.968;5.974;2022-12-07T12:25:37;9.10;;;1.10;;
52106;SDS011;38105;52.968;5.974;2022-12-07T12:28:15;8.40;;;1.23;;
52106;SDS011;38105;52.968;5.974;2022-12-07T12:30:47;7.75;;;1.02;;
52106;SDS011;38105;52.968;5.974;2022-12-07T12:33:47;9.07;;;1.40;;
52106;SDS011;38105;52.968;5.974;2022-12-07T12:36:25;10.48;;;1.10;;
52106;SDS011;38105;52.968;5.974;2022-12-07T12:41:53;14.10;;;1.48;;
52106;SDS011;38105;52.968;5.974;2022-12-07T12:46:57;9.13;;;1.70;;
52106;SDS011;38105;52.968;5.974;2022-12-07T12:51:56;9.38;;;1.27;;
52106;SDS011;38105;52.968;5.974;2022-12-07T12:54:25;9.00;;;2.58;;
52106;SDS011;38105;52.968;5.974;2022-12-07T12:57:00;9.82;;;2.30;;
52106;SDS011;38105;52.968;5.974;2022-12-07T12:59:32;15.18;;;3.80;;
52106;SDS011;38105;52.968;5.974;2022-12-07T13:10:23;10.32;;;3.90;;
52106;SDS011;38105;52.968;5.974;2022-12-07T13:15:40;7.85;;;1.15;;
52106;SDS011;38105;52.968;5.974;2022-12-07T13:20:49;8.63;;;1.00;;
52106;SDS011;38105;52.968;5.974;2022-12-07T13:26:22;5.20;;;0.75;;
52106;SDS011;38105;52.968;5.974;2022-12-07T13:28:52;6.53;;;1.23;;
52106;SDS011;38105;52.968;5.974;2022-12-07T13:31:37;7.88;;;1.00;;
52106;SDS011;38105;52.968;5.974;2022-12-07T13:37:08;8.73;;;1.30;;
52106;SDS011;38105;52.968;5.974;2022-12-07T13:39:46;6.72;;;1.10;;
52106;SDS011;38105;52.968;5.974;2022-12-07T13:42:24;5.60;;;0.82;;
52106;SDS011;38105;52.968;5.974;2022-12-07T13:44:55;10.73;;;1.33;;
52106;SDS011;38105;52.968;5.974;2022-12-07T13:47:33;9.85;;;1.13;;
52106;SDS011;38105;52.968;5.974;2022-12-07T13:50:02;4.97;;;1.23;;
52106;SDS011;38105;52.968;5.974;2022-12-07T13:52:47;9.40;;;1.50;;
52106;SDS011;38105;52.968;5.974;2022-12-07T13:55:15;12.70;;;1.42;;
52106;SDS011;38105;52.968;5.974;2022-12-07T13:57:50;8.45;;;1.30;;
52106;SDS011;38105;52.968;5.974;2022-12-07T14:00:18;6.45;;;1.13;;
52106;SDS011;38105;52.968;5.974;2022-12-07T14:03:02;9.25;;;2.15;;
52106;SDS011;38105;52.968;5.974;2022-12-07T14:06:06;11.93;;;1.20;;
52106;SDS011;38105;52.968;5.974;2022-12-07T14:08:43;14.70;;;1.65;;
52106;SDS011;38105;52.968;5.974;2022-12-07T14:11:13;7.78;;;1.00;;
52106;SDS011;38105;52.968;5.974;2022-12-07T14:14:00;11.35;;;1.88;;
52106;SDS011;38105;52.968;5.974;2022-12-07T14:18:59;9.82;;;1.63;;
52106;SDS011;38105;52.968;5.974;2022-12-07T14:21:30;9.23;;;2.28;;
52106;SDS011;38105;52.968;5.974;2022-12-07T14:26:49;9.68;;;2.95;;
52106;SDS011;38105;52.968;5.974;2022-12-07T14:29:19;8.68;;;1.70;;
52106;SDS011;38105;52.968;5.974;2022-12-07T14:31:56;3.83;;;0.80;;
52106;SDS011;38105;52.968;5.974;2022-12-07T14:34:23;7.20;;;1.00;;
52106;SDS011;38105;52.968;5.974;2022-12-07T14:36:50;6.75;;;0.68;;
52106;SDS011;38105;52.968;5.974;2022-12-07T14:39:15;6.35;;;0.85;;
52106;SDS011;38105;52.968;5.974;2022-12-07T14:41:41;4.38;;;1.35;;
52106;SDS011;38105;52.968;5.974;2022-12-07T14:44:15;6.88;;;1.17;;
52106;SDS011;38105;52.968;5.974;2022-12-07T14:46:42;3.15;;;0.60;;
52106;SDS011;38105;52.968;5.974;2022-12-07T14:49:07;8.23;;;0.85;;
52106;SDS011;38105;52.968;5.974;2022-12-07T14:51:33;5.32;;;1.10;;
52106;SDS011;38105;52.968;5.974;2022-12-07T14:54:03;4.80;;;0.90;;
52106;SDS011;38105;52.968;5.974;2022-12-07T14:56:30;4.47;;;1.10;;
52106;SDS011;38105;52.968;5.974;2022-12-07T14:58:56;4.50;;;0.60;;
52106;SDS011;38105;52.968;5.974;2022-12-07T15:01:22;4.78;;;0.70;;
52106;SDS011;38105;52.968;5.974;2022-12-07T15:03:48;2.63;;;0.85;;
52106;SDS011;38105;52.968;5.974;2022-12-07T15:06:14;7.45;;;1.00;;
52106;SDS011;38105;52.968;5.974;2022-12-07T15:08:41;3.30;;;1.30;;
52106;SDS011;38105;52.968;5.974;2022-12-07T15:11:13;4.55;;;0.93;;
52106;SDS011;38105;52.968;5.974;2022-12-07T15:13:40;4.43;;;0.90;;
52106;SDS011;38105;52.968;5.974;2022-12-07T15:16:24;3.70;;;1.10;;
52106;SDS011;38105;52.968;5.974;2022-12-07T15:18:49;5.00;;;1.60;;
52106;SDS011;38105;52.968;5.974;2022-12-07T15:21:16;4.93;;;1.05;;
52106;SDS011;38105;52.968;5.974;2022-12-07T15:23:42;2.92;;;1.05;;
52106;SDS011;38105;52.968;5.974;2022-12-07T15:26:09;3.60;;;1.08;;
52106;SDS011;38105;52.968;5.974;2022-12-07T15:28:35;5.47;;;0.90;;
52106;SDS011;38105;52.968;5.974;2022-12-07T15:31:01;4.50;;;0.90;;
52106;SDS011;38105;52.968;5.974;2022-12-07T15:33:26;4.30;;;0.90;;
52106;SDS011;38105;52.968;5.974;2022-12-07T15:35:52;3.70;;;0.95;;
52106;SDS011;38105;52.968;5.974;2022-12-07T15:38:18;3.13;;;1.10;;
52106;SDS011;38105;52.968;5.974;2022-12-07T15:40:46;3.42;;;0.98;;
52106;SDS011;38105;52.968;5.974;2022-12-07T15:43:12;5.68;;;1.38;;
52106;SDS011;38105;52.968;5.974;2022-12-07T15:45:56;4.13;;;0.90;;
52106;SDS011;38105;52.968;5.974;2022-12-07T15:48:22;4.93;;;1.65;;
52106;SDS011;38105;52.968;5.974;2022-12-07T15:50:48;12.63;;;4.82;;
52106;SDS011;38105;52.968;5.974;2022-12-07T15:53:13;6.88;;;1.92;;
52106;SDS011;38105;52.968;5.974;2022-12-07T15:55:39;4.72;;;1.02;;
52106;SDS011;38105;52.968;5.974;2022-12-07T15:58:05;5.85;;;1.38;;
52106;SDS011;38105;52.968;5.974;2022-12-07T16:00:31;9.20;;;1.35;;
52106;SDS011;38105;52.968;5.974;2022-12-07T16:02:57;4.57;;;1.17;;
52106;SDS011;38105;52.968;5.974;2022-12-07T16:05:23;6.25;;;1.10;;
52106;SDS011;38105;52.968;5.974;2022-12-07T16:07:49;5.53;;;0.90;;
52106;SDS011;38105;52.968;5.974;2022-12-07T16:10:14;6.10;;;1.33;;
52106;SDS011;38105;52.968;5.974;2022-12-07T16:12:40;7.43;;;1.60;;
52106;SDS011;38105;52.968;5.974;2022-12-07T16:15:06;11.32;;;2.00;;
52106;SDS011;38105;52.968;5.974;2022-12-07T16:17:32;6.20;;;1.20;;
52106;SDS011;38105;52.968;5.974;2022-12-07T16:19:57;7.70;;;1.20;;
52106;SDS011;38105;52.968;5.974;2022-12-07T16:22:23;6.63;;;1.20;;
52106;SDS011;38105;52.968;5.974;2022-12-07T16:24:49;11.68;;;1.42;;
52106;SDS011;38105;52.968;5.974;2022-12-07T16:27:14;6.40;;;1.25;;
52106;SDS011;38105;52.968;5.974;2022-12-07T16:29:40;7.68;;;1.02;;
52106;SDS011;38105;52.968;5.974;2022-12-07T16:32:06;5.82;;;1.42;;
52106;SDS011;38105;52.968;5.974;2022-12-07T16:34:32;7.68;;;1.50;;
52106;SDS011;38105;52.968;5.974;2022-12-07T16:36:57;6.93;;;1.67;;
52106;SDS011;38105;52.968;5.974;2022-12-07T16:39:23;6.20;;;1.88;;
52106;SDS011;38105;52.968;5.974;2022-12-07T16:41:49;5.10;;;1.80;;
52106;SDS011;38105;52.968;5.974;2022-12-07T16:44:15;6.63;;;2.35;;
52106;SDS011;38105;52.968;5.974;2022-12-07T16:46:41;6.65;;;2.17;;
52106;SDS011;38105;52.968;5.974;2022-12-07T16:49:10;5.40;;;2.28;;
52106;SDS011;38105;52.968;5.974;2022-12-07T16:51:37;8.73;;;2.70;;
52106;SDS011;38105;52.968;5.974;2022-12-07T16:54:04;7.95;;;2.90;;
52106;SDS011;38105;52.968;5.974;2022-12-07T16:56:30;8.07;;;3.03;;
52106;SDS011;38105;52.968;5.974;2022-12-07T16:58:57;8.20;;;2.65;;
52106;SDS011;38105;52.968;5.974;2022-12-07T17:01:23;8.75;;;2.35;;
52106;SDS011;38105;52.968;5.974;2022-12-07T17:03:49;5.10;;;1.92;;
52106;SDS011;38105;52.968;5.974;2022-12-07T17:06:16;6.07;;;1.90;;
52106;SDS011;38105;52.968;5.974;2022-12-07T17:08:43;8.68;;;1.48;;
52106;SDS011;38105;52.968;5.974;2022-12-07T17:11:13;5.00;;;1.08;;
52106;SDS011;38105;52.968;5.974;2022-12-07T17:13:44;6.80;;;1.73;;
52106;SDS011;38105;52.968;5.974;2022-12-07T17:16:29;11.15;;;3.90;;
52106;SDS011;38105;52.968;5.974;2022-12-07T17:18:55;12.10;;;4.90;;